createdAt,value
2022-11-03T00:02:11.073Z,25.77
2022-11-03T00:04:39.040Z,14.25
2022-11-03T00:07:06.671Z,16.42
2022-11-03T00:09:34.720Z,18.33
2022-11-03T00:12:03.024Z,17.83
2022-11-03T00:14:31.351Z,15.38
2022-11-03T00:16:59.384Z,19.80
2022-11-03T00:19:27.103Z,14.45
2022-11-03T00:21:55.056Z,16.88
2022-11-03T00:24:23.260Z,17.95
2022-11-03T00:26:51.257Z,17.45
2022-11-03T00:29:19.054Z,19.00
2022-11-03T00:31:47.094Z,23.02
2022-11-03T00:34:14.793Z,16.35
2022-11-03T00:36:44.660Z,20.42
2022-11-03T00:39:13.070Z,16.17
2022-11-03T00:41:41.222Z,18.20
2022-11-03T00:44:10.684Z,23.90
2022-11-03T00:46:38.844Z,15.95
2022-11-03T00:49:07.130Z,18.58
2022-11-03T00:51:37.859Z,16.95
2022-11-03T00:54:07.147Z,26.23
2022-11-03T00:56:40.321Z,22.35
2022-11-03T00:59:09.742Z,16.42
2022-11-03T01:01:46.765Z,20.60
2022-11-03T01:04:38.104Z,16.58
2022-11-03T01:07:06.488Z,16.98
2022-11-03T01:09:38.429Z,21.10
2022-11-03T01:12:10.980Z,15.57
2022-11-03T01:14:47.667Z,14.95
2022-11-03T01:17:25.491Z,17.85
2022-11-03T01:19:54.444Z,18.88
2022-11-03T01:22:23.660Z,15.02
2022-11-03T01:24:52.973Z,15.93
2022-11-03T01:27:23.153Z,16.25
2022-11-03T01:29:50.902Z,15.43
2022-11-03T01:32:18.874Z,17.58
2022-11-03T01:34:46.571Z,14.20
2022-11-03T01:37:14.534Z,14.88
2022-11-03T01:39:42.164Z,14.77
2022-11-03T01:42:13.386Z,16.23
2022-11-03T01:44:47.539Z,17.70
2022-11-03T01:47:29.406Z,18.02
2022-11-03T01:50:06.240Z,17.70
2022-11-03T01:52:41.062Z,17.00
2022-11-03T01:55:13.880Z,18.90
2022-11-03T01:57:55.436Z,17.63
2022-11-03T02:00:23.439Z,16.58
2022-11-03T02:02:51.741Z,15.77
2022-11-03T02:05:21.490Z,12.20
2022-11-03T02:07:58.253Z,13.07
2022-11-03T02:10:26.148Z,19.58
2022-11-03T02:12:54.369Z,15.65
2022-11-03T02:15:23.521Z,14.23
2022-11-03T02:17:54.294Z,14.75
2022-11-03T02:20:30.935Z,17.13
2022-11-03T02:23:12.401Z,16.33
2022-11-03T02:25:48.930Z,12.98
2022-11-03T02:28:23.043Z,15.57
2022-11-03T02:30:53.856Z,16.25
2022-11-03T02:33:30.532Z,16.60
2022-11-03T02:36:18.405Z,12.05
2022-11-03T02:39:01.302Z,16.60
2022-11-03T02:41:31.814Z,17.90
2022-11-03T02:44:01.638Z,15.30
2022-11-03T02:46:32.782Z,16.58
2022-11-03T02:49:00.672Z,17.02
2022-11-03T02:51:28.422Z,13.80
2022-11-03T02:54:03.894Z,16.10
2022-11-03T02:56:35.314Z,16.73
2022-11-03T02:59:10.097Z,13.55
2022-11-03T03:01:49.090Z,14.52
2022-11-03T03:04:41.207Z,14.57
2022-11-03T03:07:27.173Z,15.82
2022-11-03T03:10:29.494Z,11.65
2022-11-03T03:12:59.105Z,14.00
2022-11-03T03:15:45.998Z,13.82
2022-11-03T03:18:16.663Z,15.23
2022-11-03T03:21:07.429Z,16.23
2022-11-03T03:23:40.257Z,17.27
2022-11-03T03:26:30.210Z,15.67
2022-11-03T03:29:24.979Z,17.48
2022-11-03T03:31:58.893Z,23.50
2022-11-03T03:34:36.225Z,19.27
2022-11-03T03:37:07.716Z,18.55
2022-11-03T03:39:39.933Z,14.27
2022-11-03T03:42:10.751Z,18.80
2022-11-03T03:44:41.431Z,20.58
2022-11-03T03:47:38.245Z,17.90
2022-11-03T03:50:06.661Z,17.92
2022-11-03T03:52:36.087Z,18.27
2022-11-03T03:55:04.402Z,19.05
2022-11-03T03:57:32.782Z,20.13
2022-11-03T04:00:00.450Z,23.35
2022-11-03T04:02:28.301Z,17.35
2022-11-03T04:04:56.370Z,21.90
2022-11-03T04:07:43.817Z,20.13
2022-11-03T04:10:11.998Z,23.80
2022-11-03T04:13:02.243Z,23.13
2022-11-03T04:15:50.085Z,28.05
2022-11-03T04:18:37.877Z,22.75
2022-11-03T04:21:25.113Z,25.90
2022-11-03T04:23:54.801Z,26.85
2022-11-03T04:26:23.107Z,20.58
2022-11-03T04:28:52.889Z,22.63
2022-11-03T04:31:21.299Z,22.05
2022-11-03T04:33:49.275Z,29.02
2022-11-03T04:36:22.929Z,25.05
2022-11-03T04:41:25.887Z,24.67
2022-11-03T04:43:54.187Z,18.85
2022-11-03T04:46:29.479Z,17.95
2022-11-03T04:49:00.778Z,28.05
2022-11-03T04:51:34.858Z,28.90
2022-11-03T04:54:13.320Z,30.52
2022-11-03T04:56:41.459Z,26.95
2022-11-03T04:59:12.852Z,24.23
2022-11-03T05:01:41.199Z,28.15
2022-11-03T05:04:18.090Z,30.10
2022-11-03T05:06:52.573Z,31.73
2022-11-03T05:09:26.933Z,22.40
2022-11-03T05:11:54.729Z,26.90
2022-11-03T05:14:30.040Z,27.98
2022-11-03T05:16:59.020Z,23.80
2022-11-03T05:19:37.741Z,26.17
2022-11-03T05:22:13.088Z,28.70
2022-11-03T05:24:41.160Z,29.33
2022-11-03T05:27:16.609Z,30.88
2022-11-03T05:29:45.611Z,26.95
2022-11-03T05:32:19.835Z,27.90
2022-11-03T05:34:50.885Z,29.08
2022-11-03T05:37:35.363Z,27.02
2022-11-03T05:40:17.542Z,33.55
2022-11-03T05:42:50.445Z,26.58
2022-11-03T05:45:23.587Z,28.27
2022-11-03T05:47:55.314Z,29.35
2022-11-03T05:50:33.749Z,32.55
2022-11-03T05:53:23.743Z,33.85
2022-11-03T05:55:52.062Z,29.05
2022-11-03T05:58:30.086Z,30.60
2022-11-03T06:00:59.211Z,25.33
2022-11-03T06:03:30.872Z,27.63
2022-11-03T06:06:02.037Z,33.20
2022-11-03T06:08:38.932Z,29.05
2022-11-03T06:11:19.883Z,31.80
2022-11-03T06:13:47.574Z,30.33
2022-11-03T06:16:40.182Z,32.72
2022-11-03T06:19:42.716Z,34.53
2022-11-03T06:22:24.529Z,35.40
2022-11-03T06:24:57.631Z,35.15
2022-11-03T06:27:30.744Z,31.35
2022-11-03T06:30:02.792Z,31.73
2022-11-03T06:32:33.200Z,39.05
2022-11-03T06:35:00.908Z,33.63
2022-11-03T06:37:32.561Z,34.28
2022-11-03T06:40:24.852Z,31.10
2022-11-03T06:42:56.366Z,36.97
2022-11-03T06:45:25.897Z,29.80
2022-11-03T06:47:54.617Z,37.92
2022-11-03T06:50:44.751Z,31.98
2022-11-03T06:53:18.581Z,31.13
2022-11-03T06:55:47.411Z,33.70
2022-11-03T06:58:32.430Z,37.15
2022-11-03T07:01:04.357Z,35.80
2022-11-03T07:03:35.343Z,34.75
2022-11-03T07:06:19.237Z,34.13
2022-11-03T07:08:50.926Z,31.17
2022-11-03T07:11:26.153Z,28.35
2022-11-03T07:14:10.373Z,38.10
2022-11-03T07:16:38.280Z,32.22
2022-11-03T07:19:15.003Z,33.95
2022-11-03T07:21:49.136Z,39.58
2022-11-03T07:24:27.598Z,36.80
2022-11-03T07:27:13.239Z,32.80
2022-11-03T07:29:43.021Z,25.63
2022-11-03T07:32:20.275Z,25.92
2022-11-03T07:34:49.602Z,33.88
2022-11-03T07:37:26.276Z,30.52
2022-11-03T07:39:54.125Z,29.15
2022-11-03T07:42:27.355Z,28.08
2022-11-03T07:45:00.884Z,25.00
2022-11-03T07:47:30.014Z,23.98
2022-11-03T07:49:57.705Z,19.85
2022-11-03T07:52:27.102Z,26.95
2022-11-03T07:54:59.261Z,21.13
2022-11-03T07:57:30.651Z,23.90
2022-11-03T08:00:08.936Z,19.17
2022-11-03T08:02:49.484Z,18.65
2022-11-03T08:05:17.285Z,19.73
2022-11-03T08:07:45.289Z,13.85
2022-11-03T08:10:13.831Z,14.27
2022-11-03T08:12:41.827Z,15.02
2022-11-03T08:15:10.263Z,13.43
2022-11-03T08:17:38.266Z,16.75
2022-11-03T08:20:06.342Z,16.25
2022-11-03T08:22:34.498Z,17.95
2022-11-03T08:25:02.213Z,18.13
2022-11-03T08:27:30.214Z,16.27
2022-11-03T08:29:57.990Z,13.15
2022-11-03T08:32:26.058Z,14.35
2022-11-03T08:34:53.671Z,13.05
2022-11-03T08:37:21.759Z,11.82
2022-11-03T08:39:49.457Z,13.27
2022-11-03T08:42:17.451Z,19.38
2022-11-03T08:44:45.202Z,13.32
2022-11-03T08:47:13.242Z,18.35
2022-11-03T08:49:41.440Z,12.40
2022-11-03T08:52:09.340Z,12.75
2022-11-03T08:54:37.037Z,13.60
2022-11-03T08:57:05.269Z,13.60
2022-11-03T08:59:33.051Z,16.75
2022-11-03T09:02:01.138Z,15.40
2022-11-03T09:04:28.985Z,10.55
2022-11-03T09:06:57.019Z,14.73
2022-11-03T09:12:12.722Z,14.52
2022-11-03T09:14:40.460Z,14.10
2022-11-03T09:17:08.235Z,13.40
2022-11-03T09:19:36.276Z,11.57
2022-11-03T09:22:04.213Z,12.70
2022-11-03T09:24:31.920Z,22.88
2022-11-03T09:27:02.229Z,14.68
2022-11-03T09:29:51.720Z,12.95
2022-11-03T09:32:23.033Z,13.18
2022-11-03T09:34:51.528Z,13.07
2022-11-03T09:37:19.670Z,14.15
2022-11-03T09:39:47.290Z,11.80
2022-11-03T09:42:17.253Z,11.63
2022-11-03T09:44:46.999Z,12.40
2022-11-03T09:47:25.140Z,10.05
2022-11-03T09:49:53.256Z,9.98
2022-11-03T09:52:24.304Z,15.43
2022-11-03T09:54:55.694Z,11.75
2022-11-03T09:57:26.371Z,12.60
2022-11-03T09:59:54.615Z,10.93
2022-11-03T10:02:33.067Z,11.48
2022-11-03T10:05:06.959Z,10.65
2022-11-03T10:07:38.260Z,10.98
2022-11-03T10:10:06.457Z,9.48
2022-11-03T10:12:37.958Z,12.13
2022-11-03T10:15:07.391Z,13.95
2022-11-03T10:17:35.379Z,13.60
2022-11-03T10:20:06.993Z,13.75
2022-11-03T10:22:38.445Z,16.00
2022-11-03T10:25:32.979Z,14.07
2022-11-03T10:28:14.550Z,11.05
2022-11-03T10:31:12.198Z,12.88
2022-11-03T10:33:51.959Z,18.10
2022-11-03T10:36:20.207Z,9.85
2022-11-03T10:38:48.587Z,12.95
2022-11-03T10:41:17.476Z,11.30
2022-11-03T10:43:59.486Z,15.73
2022-11-03T10:49:18.568Z,14.07
2022-11-03T10:51:51.125Z,14.82
2022-11-03T10:54:23.917Z,9.27
2022-11-03T10:56:52.740Z,10.33
2022-11-03T10:59:31.888Z,10.35
2022-11-03T11:02:01.237Z,11.65
2022-11-03T11:04:32.361Z,14.25
2022-11-03T11:07:00.401Z,15.15
2022-11-03T11:09:29.135Z,13.20
2022-11-03T11:12:02.439Z,11.70
2022-11-03T11:14:30.197Z,12.35
2022-11-03T11:16:59.916Z,7.75
2022-11-03T11:19:29.430Z,15.40
2022-11-03T11:21:57.324Z,13.98
2022-11-03T11:24:43.475Z,12.50
2022-11-03T11:27:31.924Z,12.02
2022-11-03T11:30:00.878Z,11.18
2022-11-03T11:32:46.994Z,15.63
2022-11-03T11:35:25.027Z,10.68
2022-11-03T11:37:54.291Z,8.75
2022-11-03T11:40:24.711Z,10.93
2022-11-03T11:43:11.176Z,11.43
2022-11-03T11:46:16.690Z,15.43
2022-11-03T11:51:12.672Z,10.93
2022-11-03T11:53:44.834Z,10.95
2022-11-03T11:56:16.592Z,8.48
2022-11-03T11:58:55.470Z,15.48
2022-11-03T12:01:37.911Z,10.57
2022-11-03T12:04:31.558Z,9.68
2022-11-03T12:06:59.983Z,7.88
2022-11-03T12:09:29.075Z,9.07
2022-11-03T12:12:07.059Z,8.40
2022-11-03T12:14:38.982Z,11.77
2022-11-03T12:17:19.192Z,11.55
2022-11-03T12:19:54.420Z,7.97
2022-11-03T12:22:26.023Z,11.00
2022-11-03T12:24:55.625Z,13.98
2022-11-03T12:27:26.051Z,11.68
2022-11-03T12:29:55.468Z,11.70
2022-11-03T12:32:33.085Z,13.00
2022-11-03T12:35:02.884Z,10.05
2022-11-03T12:37:30.852Z,8.00
2022-11-03T12:39:58.510Z,9.63
2022-11-03T12:42:26.326Z,11.95
2022-11-03T12:44:54.533Z,11.80
2022-11-03T12:47:22.301Z,9.55
2022-11-03T12:49:50.000Z,9.93
2022-11-03T12:52:17.976Z,16.05
2022-11-03T12:54:45.698Z,11.20
2022-11-03T12:57:14.014Z,14.30
2022-11-03T12:59:41.798Z,8.95
2022-11-03T13:02:11.913Z,10.48
2022-11-03T13:04:39.773Z,12.55
2022-11-03T13:07:07.725Z,8.07
2022-11-03T13:09:36.074Z,11.48
2022-11-03T13:12:22.712Z,13.23
2022-11-03T13:14:50.389Z,8.52
2022-11-03T13:17:18.369Z,15.70
2022-11-03T13:19:46.006Z,11.52
2022-11-03T13:22:13.947Z,8.05
2022-11-03T13:24:41.673Z,16.38
2022-11-03T13:27:10.124Z,17.85
2022-11-03T13:29:37.908Z,7.63
2022-11-03T13:32:06.311Z,12.32
2022-11-03T13:34:34.049Z,7.82
2022-11-03T13:37:02.090Z,11.30
2022-11-03T13:39:29.782Z,14.57
2022-11-03T13:41:57.823Z,9.65
2022-11-03T13:44:25.480Z,8.13
2022-11-03T13:46:54.151Z,11.57
2022-11-03T13:49:59.278Z,13.68
2022-11-03T13:52:10.557Z,13.77
2022-11-03T14:00:16.844Z,10.65
2022-11-03T14:05:32.592Z,10.52
2022-11-03T14:08:00.516Z,8.38
2022-11-03T14:10:28.199Z,12.38
2022-11-03T14:12:56.234Z,10.07
2022-11-03T14:15:23.866Z,10.80
2022-11-03T14:17:51.914Z,9.52
2022-11-03T14:20:19.726Z,9.75
2022-11-03T14:22:47.777Z,12.02
2022-11-03T14:25:15.610Z,11.48
2022-11-03T14:27:43.602Z,8.73
2022-11-03T14:30:12.368Z,7.63
2022-11-03T14:32:40.470Z,9.63
2022-11-03T14:35:08.629Z,12.50
2022-11-03T14:37:36.744Z,14.70
2022-11-03T14:40:05.575Z,10.98
2022-11-03T14:42:33.576Z,16.38
2022-11-03T14:45:01.192Z,7.93
2022-11-03T14:47:31.464Z,12.52
2022-11-03T14:49:59.567Z,9.80
2022-11-03T14:52:27.246Z,13.07
2022-11-03T14:54:55.152Z,10.15
2022-11-03T14:57:22.847Z,12.02
2022-11-03T14:59:53.521Z,17.27
2022-11-03T15:02:21.609Z,9.18
2022-11-03T15:04:49.666Z,10.30
2022-11-03T15:07:17.337Z,23.63
2022-11-03T15:09:45.027Z,42.63
2022-11-03T15:12:12.970Z,57.15
2022-11-03T15:14:40.652Z,52.60
2022-11-03T15:17:08.313Z,34.65
2022-11-03T15:19:36.394Z,21.85
2022-11-03T15:22:04.054Z,34.17
2022-11-03T15:27:19.868Z,30.63
2022-11-03T15:29:47.846Z,21.77
2022-11-03T15:32:15.564Z,24.65
2022-11-03T15:34:43.505Z,23.75
2022-11-03T15:37:11.422Z,23.90
2022-11-03T15:39:39.355Z,23.63
2022-11-03T15:42:07.717Z,19.67
2022-11-03T15:44:35.725Z,19.35
2022-11-03T15:47:03.407Z,23.52
2022-11-03T15:49:31.357Z,15.88
2022-11-03T15:51:59.145Z,23.60
2022-11-03T15:54:27.160Z,14.05
2022-11-03T15:56:54.837Z,16.90
2022-11-03T15:59:22.785Z,22.05
2022-11-03T16:01:50.580Z,19.15
2022-11-03T16:04:18.788Z,61.67
2022-11-03T16:07:06.835Z,64.53
2022-11-03T16:09:34.583Z,63.17
2022-11-03T16:12:02.760Z,77.78
2022-11-03T16:14:30.788Z,81.03
2022-11-03T16:16:58.807Z,83.18
2022-11-03T16:19:26.678Z,91.47
2022-11-03T16:21:54.595Z,76.72
2022-11-03T16:24:22.733Z,84.90
2022-11-03T16:26:53.338Z,78.57
2022-11-03T16:29:21.009Z,87.65
2022-11-03T16:31:50.330Z,140.23
2022-11-03T16:34:18.379Z,144.52
2022-11-03T16:36:46.255Z,142.18
2022-11-03T16:39:13.949Z,112.43
2022-11-03T16:41:41.867Z,111.78
2022-11-03T16:44:09.584Z,128.75
2022-11-03T16:46:37.645Z,124.60
2022-11-03T16:49:05.378Z,112.95
2022-11-03T16:51:33.315Z,104.15
2022-11-03T16:54:01.093Z,103.32
2022-11-03T16:56:29.025Z,102.15
2022-11-03T16:58:56.724Z,150.73
2022-11-03T17:01:24.658Z,232.07
2022-11-03T17:03:52.571Z,170.90
2022-11-03T17:06:20.583Z,157.27
2022-11-03T17:08:53.293Z,147.38
2022-11-03T17:11:36.235Z,152.23
2022-11-03T17:14:06.253Z,140.70
2022-11-03T17:16:34.760Z,144.10
2022-11-03T17:19:02.547Z,143.25
2022-11-03T17:21:30.848Z,144.35
2022-11-03T17:23:59.952Z,131.07
2022-11-03T17:26:53.046Z,130.45
2022-11-03T17:29:28.790Z,123.28
2022-11-03T17:31:57.239Z,137.93
2022-11-03T17:34:25.840Z,142.80
2022-11-03T17:36:54.063Z,152.65
2022-11-03T17:39:30.246Z,154.40
2022-11-03T17:42:24.816Z,158.25
2022-11-03T17:44:55.489Z,185.35
2022-11-03T17:47:24.464Z,263.67
2022-11-03T17:49:52.245Z,207.65
2022-11-03T17:52:28.199Z,185.05
2022-11-03T17:55:00.624Z,197.00
2022-11-03T17:57:28.963Z,138.60
2022-11-03T17:59:59.418Z,130.93
2022-11-03T18:02:30.825Z,108.25
2022-11-03T18:05:20.242Z,111.43
2022-11-03T18:07:50.408Z,112.32
2022-11-03T18:10:18.060Z,126.90
2022-11-03T18:13:07.564Z,116.82
2022-11-03T18:15:39.744Z,112.13
2022-11-03T18:18:23.067Z,117.85
2022-11-03T18:20:53.834Z,111.30
2022-11-03T18:23:27.420Z,102.60
2022-11-03T18:25:55.520Z,78.50
2022-11-03T18:28:23.800Z,84.65
2022-11-03T18:30:54.996Z,73.45
2022-11-03T18:33:34.476Z,75.90
2022-11-03T18:36:07.060Z,94.40
2022-11-03T18:38:37.284Z,89.85
2022-11-03T18:41:25.051Z,120.30
2022-11-03T18:43:53.040Z,99.07
2022-11-03T18:46:20.861Z,87.22
2022-11-03T18:48:48.923Z,74.15
2022-11-03T18:51:16.803Z,72.78
2022-11-03T18:53:45.105Z,83.38
2022-11-03T18:56:16.275Z,81.18
2022-11-03T18:58:44.589Z,74.85
2022-11-03T19:01:22.451Z,82.40
2022-11-03T19:03:50.941Z,86.95
2022-11-03T19:06:19.027Z,84.03
2022-11-03T19:08:47.703Z,74.43
2022-11-03T19:11:15.636Z,73.45
2022-11-03T19:13:46.513Z,76.60
2022-11-03T19:16:23.709Z,76.93
2022-11-03T19:18:54.683Z,78.65
2022-11-03T19:21:24.105Z,64.75
2022-11-03T19:23:58.013Z,70.28
2022-11-03T19:29:02.024Z,73.82
2022-11-03T19:31:48.834Z,74.32
2022-11-03T19:34:23.859Z,74.53
2022-11-03T19:36:52.581Z,71.25
2022-11-03T19:39:23.812Z,71.40
2022-11-03T19:42:10.257Z,65.40
2022-11-03T19:44:38.611Z,89.38
2022-11-03T19:47:06.809Z,104.07
2022-11-03T19:49:35.137Z,85.43
2022-11-03T19:52:02.897Z,71.15
2022-11-03T19:54:30.856Z,67.55
2022-11-03T19:56:58.540Z,64.18
2022-11-03T19:59:26.520Z,68.45
2022-11-03T20:01:54.540Z,59.03
2022-11-03T20:04:22.635Z,59.63
2022-11-03T20:06:50.337Z,62.58
2022-11-03T20:09:19.064Z,63.58
2022-11-03T20:11:47.045Z,69.57
2022-11-03T20:14:26.104Z,69.63
2022-11-03T20:17:14.547Z,59.75
2022-11-03T20:19:42.645Z,50.92
2022-11-03T20:22:16.942Z,43.67
2022-11-03T20:24:46.605Z,52.22
2022-11-03T20:27:21.495Z,43.53
2022-11-03T20:29:49.727Z,54.00
2022-11-03T20:32:17.423Z,51.30
2022-11-03T20:34:46.669Z,49.78
2022-11-03T20:37:20.514Z,51.33
2022-11-03T20:39:49.010Z,49.35
2022-11-03T20:42:23.523Z,45.25
2022-11-03T20:44:51.858Z,47.38
2022-11-03T20:47:20.041Z,42.40
2022-11-03T20:49:48.500Z,40.45
2022-11-03T20:52:16.941Z,43.90
2022-11-03T20:54:44.726Z,41.58
2022-11-03T20:57:13.706Z,36.00
2022-11-03T20:59:41.625Z,43.47
2022-11-03T21:02:14.047Z,42.95
2022-11-03T21:04:43.308Z,46.72
2022-11-03T21:07:13.557Z,36.35
2022-11-03T21:09:41.564Z,33.78
2022-11-03T21:12:13.356Z,32.92
2022-11-03T21:15:02.129Z,36.30
2022-11-03T21:17:48.759Z,36.47
2022-11-03T21:20:16.497Z,34.25
2022-11-03T21:22:53.851Z,34.63
2022-11-03T21:25:24.091Z,37.80
2022-11-03T21:27:54.029Z,37.28
2022-11-03T21:30:22.436Z,33.90
2022-11-03T21:32:50.501Z,37.95
2022-11-03T21:35:21.884Z,39.58
2022-11-03T21:37:50.044Z,36.10
2022-11-03T21:40:18.083Z,43.97
2022-11-03T21:43:04.725Z,35.53
2022-11-03T21:45:32.444Z,35.15
2022-11-03T21:48:19.392Z,30.67
2022-11-03T21:50:47.367Z,36.67
2022-11-03T21:53:15.525Z,26.73
2022-11-03T21:55:43.263Z,27.40
2022-11-03T21:58:11.217Z,37.90
2022-11-03T22:00:38.896Z,35.90
2022-11-03T22:03:07.034Z,29.65
2022-11-03T22:05:35.015Z,36.90
2022-11-03T22:08:03.042Z,34.78
2022-11-03T22:10:30.751Z,38.33
2022-11-03T22:12:58.797Z,36.40
2022-11-03T22:15:45.277Z,32.63
2022-11-03T22:18:13.444Z,32.85
2022-11-03T22:21:00.031Z,35.97
2022-11-03T22:23:46.850Z,39.35
2022-11-03T22:26:35.353Z,32.83
2022-11-03T22:29:21.927Z,31.42
2022-11-03T22:31:49.603Z,38.00
2022-11-03T22:34:35.978Z,40.17
2022-11-03T22:37:03.685Z,31.05
2022-11-03T22:39:50.392Z,30.38
2022-11-03T22:42:36.946Z,29.85
2022-11-03T22:45:23.848Z,32.97
2022-11-03T22:47:57.151Z,27.00
2022-11-03T22:52:53.152Z,26.95
2022-11-03T22:55:21.122Z,29.45
2022-11-03T22:57:49.229Z,31.83
2022-11-03T23:00:18.457Z,28.60
2022-11-03T23:02:46.080Z,27.60
2022-11-03T23:05:14.002Z,37.70
2022-11-03T23:07:41.892Z,26.58
2022-11-03T23:10:10.073Z,30.27
2022-11-03T23:12:37.729Z,23.13
2022-11-03T23:15:24.834Z,33.97
2022-11-03T23:18:11.300Z,32.22
2022-11-03T23:20:57.697Z,30.77
2022-11-03T23:23:44.249Z,29.95
2022-11-03T23:26:12.134Z,27.23
2022-11-03T23:28:40.450Z,30.73
2022-11-03T23:31:08.826Z,30.05
2022-11-03T23:33:37.088Z,29.33
2022-11-03T23:36:10.476Z,31.55
2022-11-03T23:38:39.623Z,25.92
2022-11-03T23:41:09.786Z,28.42
2022-11-03T23:43:37.719Z,31.45
2022-11-03T23:46:24.631Z,35.47
2022-11-03T23:48:53.319Z,29.63
2022-11-03T23:51:24.159Z,27.17
2022-11-03T23:53:53.222Z,26.45
2022-11-03T23:56:42.276Z,25.20
2022-11-03T23:59:12.057Z,29.85
